To NAV CANADA Home Page Login to a new session Search on AWWS site Feedback and Comments Disclaimer Vers la page française équivalente Tips FAQ What's new on the site To the Forecasts and Observations / NOTAM section To "File a Flight Plan" website Publications and other links Update of the User's profile FIC Telephone Numbers My Weather Data Folder Route Weather Data Regional Weather Data Local Weather Data To the Forecasts and Observations / NOTAM section
Request Generated 12/10/2016 at 16:32:34 UTC . Weather information available at that time is displayed.

METAR/TAF

STEPHENVILLE/NL    

METAR CYJT 101600Z 30011G21KT 15SM -SHSN BKN017 BKN040 M04/M07 A2964
RMK SC6SC1 SLP041=
METAR CYJT 101500Z 29012G18KT 10SM -SHSN DRSN BKN017 BKN040 M04/M07
A2964 RMK SC6SC1 /S02/ SLP041=
METAR CYJT 101400Z 29013G21KT 10SM -SHSN DRSN BKN015 M04/M08 A2964
RMK SC7 SLP041=

TAF CYJT 101138Z 1012/1112 28017G27KT P6SM BKN015 TEMPO 1012/1014 2SM
-SHSN BLSN PROB30 1012/1014 1SM -SHSN VV007
FM101400 33010G20KT P6SM BKN040 TEMPO 1014/1112 4SM -SHSN OVC020
RMK NXT FCST BY 101800Z=
Your time UTC time
Weather data provided by Environment Canada and NAV CANADA